Time;durP1;ratioP1;P1;durP2;ratioP2;P2;SDS_P1;SDS_P2;PMS_P1;PMS_P2;Temp;Humidity;BMP_temperature;BMP_pressure;BME280_temperature;BME280_humidity;BME280_pressure;Samples;Min_cycle;Max_cycle;Signal;HPM_P1;HPM_P2
2023/09/06 00:00:52;;;;;;;3.28;2.22;;;;;;;;;;6213482;23;20065;-85
2023/09/06 00:03:18;;;;;;;2.45;1.90;;;;;;;;;;6240854;23;20039;-84
2023/09/06 00:05:44;;;;;;;2.75;1.90;;;;;;;;;;6242140;23;20042;-84
2023/09/06 00:08:12;;;;;;;2.65;2.22;;;;;;;;;;6240806;23;20015;-84
2023/09/06 00:10:39;;;;;;;3.60;1.90;;;;;;;;;;6242184;23;20014;-84
2023/09/06 00:13:09;;;;;;;2.92;2.03;;;;;;;;;;6213052;23;20078;-86
2023/09/06 00:15:36;;;;;;;2.90;2.45;;;;;;;;;;6241313;23;20019;-84
2023/09/06 00:18:03;;;;;;;2.10;1.85;;;;;;;;;;6241667;23;20051;-84
2023/09/06 00:20:30;;;;;;;2.53;2.15;;;;;;;;;;6241202;23;20013;-86
2023/09/06 00:23:00;;;;;;;3.08;2.00;;;;;;;;;;6240598;23;20015;-84
2023/09/06 00:25:27;;;;;;;3.50;2.35;;;;;;;;;;6241620;23;20008;-85
2023/09/06 00:27:54;;;;;;;1.92;1.75;;;;;;;;;;6240392;23;20030;-85
2023/09/06 00:30:20;;;;;;;4.72;1.92;;;;;;;;;;6241619;23;20019;-85
2023/09/06 00:32:47;;;;;;;2.67;2.00;;;;;;;;;;6214993;23;20020;-85
2023/09/06 00:35:14;;;;;;;2.20;2.00;;;;;;;;;;6241626;23;20027;-88
2023/09/06 00:37:41;;;;;;;2.83;1.98;;;;;;;;;;6242256;23;20052;-87
2023/09/06 00:40:17;;;;;;;2.10;1.73;;;;;;;;;;6241302;23;20012;-85
2023/09/06 00:42:45;;;;;;;3.53;2.03;;;;;;;;;;6241200;23;20038;-91
2023/09/06 00:45:11;;;;;;;3.10;2.05;;;;;;;;;;6240758;23;20333;-84
2023/09/06 00:47:37;;;;;;;2.38;1.80;;;;;;;;;;6242153;23;20095;-86
2023/09/06 00:50:04;;;;;;;2.38;2.00;;;;;;;;;;6214210;23;20503;-85
2023/09/06 00:52:30;;;;;;;5.25;2.00;;;;;;;;;;6242130;23;20018;-85
2023/09/06 00:55:01;;;;;;;2.13;1.55;;;;;;;;;;6241282;23;20016;-85
2023/09/06 00:57:26;;;;;;;;;;;;;;;;;;6214512;23;20135;-82
2023/09/06 00:59:52;;;;;;;2.85;1.50;;;;;;;;;;6212894;23;19946;-82
2023/09/06 01:02:18;;;;;;;2.10;1.55;;;;;;;;;;6240468;23;20016;-86
2023/09/06 01:04:44;;;;;;;2.38;2.00;;;;;;;;;;6241721;23;20333;-85
2023/09/06 01:07:12;;;;;;;2.67;1.75;;;;;;;;;;6241091;23;20019;-85
2023/09/06 01:09:38;;;;;;;3.22;2.05;;;;;;;;;;6241108;23;20016;-85
2023/09/06 01:12:04;;;;;;;2.92;2.00;;;;;;;;;;6241036;23;20012;-86
2023/09/06 01:14:30;;;;;;;3.05;1.70;;;;;;;;;;6241597;23;20016;-85
2023/09/06 01:16:56;;;;;;;2.05;1.85;;;;;;;;;;6241192;23;20023;-85
2023/09/06 01:19:26;;;;;;;3.22;1.90;;;;;;;;;;6242021;23;20055;-85
2023/09/06 01:22:05;;;;;;;2.13;1.85;;;;;;;;;;6241177;23;20142;-85
2023/09/06 01:24:31;;;;;;;2.42;1.90;;;;;;;;;;6241069;23;20043;-85
2023/09/06 01:26:57;;;;;;;4.60;1.92;;;;;;;;;;6239058;23;20023;-85
2023/09/06 01:29:23;;;;;;;2.20;2.00;;;;;;;;;;6241160;23;20012;-86
2023/09/06 01:31:49;;;;;;;3.38;2.08;;;;;;;;;;6214052;23;20087;-85
2023/09/06 01:34:15;;;;;;;2.67;2.17;;;;;;;;;;6213461;23;20054;-85
2023/09/06 01:36:41;;;;;;;2.72;2.10;;;;;;;;;;6214628;23;20434;-85
2023/09/06 01:39:10;;;;;;;2.58;2.00;;;;;;;;;;6240843;23;20005;-85
2023/09/06 01:41:36;;;;;;;2.10;1.75;;;;;;;;;;6240821;23;20016;-85
2023/09/06 01:44:02;;;;;;;2.50;1.75;;;;;;;;;;6240606;23;20031;-85
2023/09/06 01:46:28;;;;;;;3.47;1.90;;;;;;;;;;6241119;23;20066;-85
2023/09/06 01:48:54;;;;;;;3.10;2.10;;;;;;;;;;6240484;23;20014;-85
2023/09/06 01:51:22;;;;;;;2.53;2.30;;;;;;;;;;6241132;23;20078;-85
2023/09/06 01:53:48;;;;;;;2.90;2.13;;;;;;;;;;6241493;23;20016;-85
2023/09/06 01:56:14;;;;;;;2.85;1.85;;;;;;;;;;6239900;23;20024;-85
2023/09/06 01:58:41;;;;;;;3.47;1.77;;;;;;;;;;6214594;23;20027;-86
2023/09/06 02:01:07;;;;;;;4.00;2.08;;;;;;;;;;6213961;23;20066;-86
2023/09/06 02:03:33;;;;;;;2.60;1.70;;;;;;;;;;6241457;23;20022;-86
2023/09/06 02:06:06;;;;;;;3.38;2.08;;;;;;;;;;6240737;23;20012;-86
2023/09/06 02:08:33;;;;;;;3.10;2.30;;;;;;;;;;6241580;23;20055;-85
2023/09/06 02:10:59;;;;;;;2.92;1.85;;;;;;;;;;6240169;23;20008;-85
2023/09/06 02:13:25;;;;;;;2.92;2.33;;;;;;;;;;6240744;23;20023;-85
2023/09/06 02:15:51;;;;;;;3.00;2.20;;;;;;;;;;6240207;23;20338;-85
2023/09/06 02:18:17;;;;;;;2.60;2.17;;;;;;;;;;6213813;23;20423;-86
2023/09/06 02:20:44;;;;;;;3.08;2.28;;;;;;;;;;6241041;23;20079;-85
2023/09/06 02:23:10;;;;;;;2.05;1.70;;;;;;;;;;6240010;23;20015;-86
2023/09/06 02:25:36;;;;;;;3.38;2.30;;;;;;;;;;6214091;23;20066;-85
2023/09/06 02:28:05;;;;;;;3.88;2.08;;;;;;;;;;6213669;23;20047;-85
2023/09/06 02:30:31;;;;;;;2.90;1.98;;;;;;;;;;6239685;23;20012;-85
2023/09/06 02:32:57;;;;;;;2.90;1.85;;;;;;;;;;6239490;23;20031;-85
2023/09/06 02:35:23;;;;;;;2.33;1.88;;;;;;;;;;6239884;23;20340;-85
2023/09/06 02:37:49;;;;;;;4.07;1.90;;;;;;;;;;6239865;23;20048;-85
2023/09/06 02:40:18;;;;;;;4.15;2.10;;;;;;;;;;6240225;23;20020;-85
2023/09/06 02:42:44;;;;;;;2.13;1.83;;;;;;;;;;6241398;23;20099;-85
2023/09/06 02:45:13;;;;;;;3.00;2.03;;;;;;;;;;6239811;23;20042;-85
2023/09/06 02:47:48;;;;;;;3.15;2.30;;;;;;;;;;6241188;23;20031;-85
2023/09/06 02:50:14;;;;;;;2.38;2.17;;;;;;;;;;6213341;23;20020;-85
2023/09/06 02:52:44;;;;;;;2.75;2.47;;;;;;;;;;6240227;23;20019;-85
2023/09/06 02:55:13;;;;;;;2.67;2.13;;;;;;;;;;6238377;23;20369;-85
2023/09/06 02:57:39;;;;;;;2.70;2.30;;;;;;;;;;6214041;23;20059;-86
2023/09/06 03:00:18;;;;;;;3.47;2.30;;;;;;;;;;6212888;23;20039;-85
2023/09/06 03:02:44;;;;;;;2.88;2.42;;;;;;;;;;6214033;23;20345;-85
2023/09/06 03:05:10;;;;;;;3.70;2.10;;;;;;;;;;6239799;23;20049;-84
2023/09/06 03:07:36;;;;;;;3.55;2.40;;;;;;;;;;6213625;23;20326;-85
2023/09/06 03:10:04;;;;;;;2.50;2.15;;;;;;;;;;6240194;23;20094;-85
2023/09/06 03:12:30;;;;;;;2.58;2.35;;;;;;;;;;6212686;23;20013;-86
2023/09/06 03:14:59;;;;;;;2.28;1.92;;;;;;;;;;6240565;23;20051;-85
2023/09/06 03:17:25;;;;;;;3.20;2.03;;;;;;;;;;6212028;23;20087;-85
2023/09/06 03:19:53;;;;;;;5.80;2.20;;;;;;;;;;6238892;23;20043;-85
2023/09/06 03:22:20;;;;;;;3.15;2.08;;;;;;;;;;6239412;23;20074;-85
2023/09/06 03:24:46;;;;;;;3.45;2.05;;;;;;;;;;6240764;23;20054;-85
2023/09/06 03:27:16;;;;;;;2.70;2.25;;;;;;;;;;6239472;23;20020;-85
2023/09/06 03:29:43;;;;;;;2.97;2.15;;;;;;;;;;6241041;23;20393;-86
2023/09/06 03:32:09;;;;;;;3.58;2.47;;;;;;;;;;6238317;23;20016;-85
2023/09/06 03:34:36;;;;;;;2.78;2.17;;;;;;;;;;6240664;23;20016;-85
2023/09/06 03:37:05;;;;;;;3.42;2.05;;;;;;;;;;6240367;23;20070;-85
2023/09/06 03:39:40;;;;;;;3.47;2.35;;;;;;;;;;6216089;23;20016;-86
2023/09/06 03:42:08;;;;;;;3.92;2.90;;;;;;;;;;6215257;23;20020;-85
2023/09/06 03:44:37;;;;;;;3.60;2.30;;;;;;;;;;6242848;23;20442;-85
2023/09/06 03:47:05;;;;;;;2.83;2.15;;;;;;;;;;6241673;23;20008;-86
2023/09/06 03:49:32;;;;;;;3.15;2.38;;;;;;;;;;6190052;23;20051;-86
2023/09/06 03:51:59;;;;;;;2.85;2.40;;;;;;;;;;6241262;23;20083;-85
2023/09/06 03:54:25;;;;;;;3.85;2.75;;;;;;;;;;6215246;23;20027;-88
2023/09/06 03:56:53;;;;;;;2.85;2.08;;;;;;;;;;6241882;23;20020;-86
2023/09/06 03:59:21;;;;;;;2.42;2.20;;;;;;;;;;6215039;23;20039;-87
2023/09/06 04:01:47;;;;;;;3.00;2.00;;;;;;;;;;6242435;23;20016;-86
2023/09/06 04:04:14;;;;;;;3.08;2.25;;;;;;;;;;6241113;23;20549;-86
2023/09/06 04:06:43;;;;;;;3.58;2.47;;;;;;;;;;6241296;23;20042;-86
2023/09/06 04:09:12;;;;;;;2.65;2.17;;;;;;;;;;6241056;23;20019;-86
2023/09/06 04:11:39;;;;;;;3.58;2.42;;;;;;;;;;6242598;23;20008;-86
2023/09/06 04:14:05;;;;;;;3.50;2.50;;;;;;;;;;6241915;23;20303;-86
2023/09/06 04:16:31;;;;;;;3.95;2.33;;;;;;;;;;6240786;23;20016;-85
2023/09/06 04:18:57;;;;;;;2.80;2.30;;;;;;;;;;6241708;23;20016;-86
2023/09/06 04:21:23;;;;;;;3.13;2.55;;;;;;;;;;6214223;23;20364;-87
2023/09/06 04:23:49;;;;;;;3.53;2.63;;;;;;;;;;6214495;23;20016;-86
2023/09/06 04:26:15;;;;;;;3.25;2.65;;;;;;;;;;6214883;23;20012;-86
2023/09/06 04:28:41;;;;;;;3.25;2.47;;;;;;;;;;6190185;23;20443;-86
2023/09/06 04:31:07;;;;;;;4.13;2.50;;;;;;;;;;6241370;23;20008;-86
2023/09/06 04:33:33;;;;;;;2.30;2.10;;;;;;;;;;6242002;23;20123;-86
2023/09/06 04:36:02;;;;;;;2.75;2.55;;;;;;;;;;6241124;23;20017;-86
2023/09/06 04:38:31;;;;;;;3.58;2.25;;;;;;;;;;6240286;23;20016;-86
2023/09/06 04:40:58;;;;;;;2.75;2.38;;;;;;;;;;6242026;23;20012;-87
2023/09/06 04:43:25;;;;;;;2.67;2.45;;;;;;;;;;6241238;23;20311;-86
2023/09/06 04:45:52;;;;;;;2.90;2.42;;;;;;;;;;6242452;23;20130;-85
2023/09/06 04:48:18;;;;;;;3.47;2.63;;;;;;;;;;6241123;23;20012;-86
2023/09/06 04:50:44;;;;;;;2.45;2.25;;;;;;;;;;6242033;23;20004;-85
2023/09/06 04:53:11;;;;;;;3.45;2.72;;;;;;;;;;6240454;23;20090;-85
2023/09/06 04:55:38;;;;;;;2.72;2.50;;;;;;;;;;6241311;23;20511;-85
2023/09/06 04:58:07;;;;;;;3.25;2.47;;;;;;;;;;6240990;23;20035;-85
2023/09/06 05:00:37;;;;;;;4.13;2.90;;;;;;;;;;6214612;23;20012;-85
2023/09/06 05:03:04;;;;;;;2.88;2.15;;;;;;;;;;6241360;23;20329;-85
2023/09/06 05:05:30;;;;;;;3.13;2.50;;;;;;;;;;6240285;23;20103;-86
2023/09/06 05:07:56;;;;;;;3.97;2.60;;;;;;;;;;6213430;23;20059;-85
2023/09/06 05:10:22;;;;;;;3.00;2.70;;;;;;;;;;6240876;23;20016;-87
2023/09/06 05:12:48;;;;;;;3.80;2.42;;;;;;;;;;6240699;23;20016;-87
2023/09/06 05:15:14;;;;;;;3.72;2.67;;;;;;;;;;6214652;23;20686;-91
2023/09/06 05:17:40;;;;;;;3.40;2.80;;;;;;;;;;6241328;23;20020;-90
2023/09/06 05:20:25;;;;;;;2.75;2.33;;;;;;;;;;6213203;23;20088;-85
2023/09/06 05:22:52;;;;;;;3.20;2.50;;;;;;;;;;6240933;23;20012;-84
2023/09/06 05:25:18;;;;;;;3.97;2.50;;;;;;;;;;6241101;23;20020;-86
2023/09/06 05:27:44;;;;;;;3.22;2.83;;;;;;;;;;6242108;23;20095;-85
2023/09/06 05:30:10;;;;;;;2.90;2.50;;;;;;;;;;6239873;23;20377;-86
2023/09/06 05:32:36;;;;;;;3.30;3.00;;;;;;;;;;6241098;23;20171;-86
2023/09/06 05:35:03;;;;;;;3.13;2.85;;;;;;;;;;6240936;23;20453;-85
2023/09/06 05:37:29;;;;;;;3.00;2.53;;;;;;;;;;6241623;23;20051;-86
2023/09/06 05:39:56;;;;;;;4.57;4.15;;;;;;;;;;6240968;23;20091;-86
2023/09/06 05:42:22;;;;;;;4.45;3.17;;;;;;;;;;6241478;23;20043;-86
2023/09/06 05:44:48;;;;;;;5.38;2.53;;;;;;;;;;6241078;23;20016;-87
2023/09/06 05:47:14;;;;;;;3.40;2.65;;;;;;;;;;6187563;23;20016;-86
2023/09/06 05:49:40;;;;;;;3.95;2.80;;;;;;;;;;6241833;23;20013;-84
2023/09/06 05:52:06;;;;;;;6.47;2.72;;;;;;;;;;6240110;23;20049;-85
2023/09/06 05:54:32;;;;;;;4.53;2.85;;;;;;;;;;6240771;23;20334;-85
2023/09/06 05:56:58;;;;;;;2.85;2.55;;;;;;;;;;6240728;23;20074;-85
2023/09/06 05:59:25;;;;;;;3.65;2.53;;;;;;;;;;6241387;23;20075;-85
2023/09/06 06:01:51;;;;;;;3.47;2.63;;;;;;;;;;6211288;23;20066;-85
2023/09/06 06:04:17;;;;;;;3.70;2.92;;;;;;;;;;6240745;23;20091;-88
2023/09/06 06:06:43;;;;;;;2.88;2.42;;;;;;;;;;6213396;23;20020;-85
2023/09/06 06:09:11;;;;;;;3.20;2.90;;;;;;;;;;6212746;23;20016;-85
2023/09/06 06:11:40;;;;;;;3.13;2.60;;;;;;;;;;6213523;23;20008;-85
2023/09/06 06:14:07;;;;;;;3.25;2.60;;;;;;;;;;6240208;23;20038;-85
2023/09/06 06:16:33;;;;;;;3.67;2.40;;;;;;;;;;6238617;23;20012;-83
2023/09/06 06:18:59;;;;;;;4.10;2.85;;;;;;;;;;6239869;23;20398;-81
2023/09/06 06:21:28;;;;;;;3.58;2.95;;;;;;;;;;6238890;23;20314;-81
2023/09/06 06:23:54;;;;;;;4.70;2.90;;;;;;;;;;6239749;23;20027;-81
2023/09/06 06:26:21;;;;;;;5.05;3.20;;;;;;;;;;6211930;23;20422;-81
2023/09/06 06:28:48;;;;;;;4.85;3.33;;;;;;;;;;6213405;23;20008;-82
2023/09/06 06:31:14;;;;;;;3.78;2.95;;;;;;;;;;6240489;23;20016;-81
2023/09/06 06:33:42;;;;;;;4.15;2.90;;;;;;;;;;6213250;23;20070;-81
2023/09/06 06:36:08;;;;;;;4.55;2.70;;;;;;;;;;6212723;23;20081;-82
2023/09/06 06:38:34;;;;;;;6.13;2.97;;;;;;;;;;6241212;23;20012;-82
2023/09/06 06:41:00;;;;;;;3.78;2.95;;;;;;;;;;6188449;23;20011;-82
2023/09/06 06:43:27;;;;;;;4.43;3.05;;;;;;;;;;6240950;23;20063;-81
2023/09/06 06:45:56;;;;;;;3.20;2.60;;;;;;;;;;6240824;23;20008;-81
2023/09/06 06:48:23;;;;;;;4.20;2.85;;;;;;;;;;6240678;23;20094;-82
2023/09/06 06:50:49;;;;;;;3.78;2.85;;;;;;;;;;6239943;23;20012;-81
2023/09/06 06:53:15;;;;;;;3.20;2.85;;;;;;;;;;6240599;23;20016;-81
2023/09/06 06:55:42;;;;;;;3.42;2.75;;;;;;;;;;6213602;23;20511;-82
2023/09/06 06:58:08;;;;;;;5.07;3.30;;;;;;;;;;6213835;23;20089;-82
2023/09/06 07:00:37;;;;;;;3.45;2.70;;;;;;;;;;6239931;23;20071;-81
2023/09/06 07:03:03;;;;;;;3.20;2.60;;;;;;;;;;6240243;23;20107;-81
2023/09/06 07:05:29;;;;;;;3.58;2.65;;;;;;;;;;6213167;23;20020;-81
2023/09/06 07:07:55;;;;;;;3.35;2.55;;;;;;;;;;6239857;23;20449;-81
2023/09/06 07:10:21;;;;;;;3.20;2.63;;;;;;;;;;6213899;23;20059;-82
2023/09/06 07:12:48;;;;;;;3.28;2.92;;;;;;;;;;6243326;23;20008;-81
2023/09/06 07:15:14;;;;;;;3.83;3.05;;;;;;;;;;6214351;23;20090;-82
2023/09/06 07:17:41;;;;;;;3.58;2.70;;;;;;;;;;6242100;23;20070;-84
2023/09/06 07:20:08;;;;;;;4.13;2.88;;;;;;;;;;6240915;23;20081;-85
2023/09/06 07:22:34;;;;;;;3.78;2.88;;;;;;;;;;6242555;23;20015;-83
2023/09/06 07:25:00;;;;;;;3.08;2.40;;;;;;;;;;6239449;23;20330;-82
2023/09/06 07:27:26;;;;;;;4.18;2.50;;;;;;;;;;6241058;23;20023;-81
2023/09/06 07:29:52;;;;;;;3.53;2.17;;;;;;;;;;6240407;23;20087;-81
2023/09/06 07:32:18;;;;;;;2.45;2.10;;;;;;;;;;6241112;23;20035;-81
2023/09/06 07:34:45;;;;;;;3.88;2.13;;;;;;;;;;6241143;23;20048;-81
2023/09/06 07:37:11;;;;;;;2.30;2.03;;;;;;;;;;6241391;23;20047;-81
2023/09/06 07:39:37;;;;;;;2.38;2.10;;;;;;;;;;6242267;23;20107;-82
2023/09/06 07:42:05;;;;;;;2.22;1.75;;;;;;;;;;6242315;23;20112;-84
2023/09/06 07:44:32;;;;;;;3.47;2.28;;;;;;;;;;6239818;23;20047;-84
2023/09/06 07:46:59;;;;;;;2.30;2.10;;;;;;;;;;6242080;23;20008;-82
2023/09/06 07:49:26;;;;;;;3.60;2.15;;;;;;;;;;6241661;23;20019;-83
2023/09/06 07:51:52;;;;;;;2.28;1.58;;;;;;;;;;6242773;23;20008;-84
2023/09/06 07:54:19;;;;;;;3.40;2.03;;;;;;;;;;6241823;23;20012;-83
2023/09/06 07:56:47;;;;;;;2.08;1.88;;;;;;;;;;6241613;23;20020;-84
2023/09/06 07:59:13;;;;;;;1.77;1.55;;;;;;;;;;6213668;23;20008;-81
2023/09/06 08:01:39;;;;;;;3.08;2.15;;;;;;;;;;6215757;23;20368;-89
2023/09/06 08:04:05;;;;;;;3.50;1.80;;;;;;;;;;6242027;23;20091;-85
2023/09/06 08:06:31;;;;;;;2.10;1.58;;;;;;;;;;6241594;23;20027;-84
2023/09/06 08:08:58;;;;;;;1.92;1.75;;;;;;;;;;6242067;23;20016;-82
2023/09/06 08:11:25;;;;;;;1.98;1.52;;;;;;;;;;6242393;23;20015;-83
2023/09/06 08:13:51;;;;;;;1.70;1.50;;;;;;;;;;6214291;23;20027;-86
2023/09/06 08:16:17;;;;;;;1.55;1.42;;;;;;;;;;6214236;23;20028;-84
2023/09/06 08:18:44;;;;;;;3.92;1.85;;;;;;;;;;6215820;23;20069;-83
2023/09/06 08:21:10;;;;;;;2.17;1.60;;;;;;;;;;6241945;23;20350;-83
2023/09/06 08:23:36;;;;;;;3.30;1.55;;;;;;;;;;6215610;23;20070;-83
2023/09/06 08:26:03;;;;;;;2.05;1.75;;;;;;;;;;6241304;23;20020;-84
2023/09/06 08:28:30;;;;;;;3.42;1.60;;;;;;;;;;6214920;23;20087;-83
2023/09/06 08:30:56;;;;;;;2.50;1.60;;;;;;;;;;6241517;23;20041;-85
2023/09/06 08:33:22;;;;;;;1.67;1.58;;;;;;;;;;6241805;23;20078;-83
2023/09/06 08:35:48;;;;;;;1.85;1.30;;;;;;;;;;6215115;23;20016;-83
2023/09/06 08:38:14;;;;;;;1.52;1.42;;;;;;;;;;6214750;23;20024;-83
2023/09/06 08:40:40;;;;;;;1.83;1.60;;;;;;;;;;6241567;23;20039;-83
2023/09/06 08:43:11;;;;;;;3.08;1.52;;;;;;;;;;6241487;23;20043;-81
2023/09/06 08:45:37;;;;;;;2.05;1.50;;;;;;;;;;6242598;23;20087;-82
2023/09/06 08:48:03;;;;;;;2.05;1.60;;;;;;;;;;6212424;23;20388;-82
2023/09/06 08:50:30;;;;;;;1.95;1.73;;;;;;;;;;6214299;23;20051;-81
2023/09/06 08:52:56;;;;;;;2.20;1.73;;;;;;;;;;6241515;23;20012;-81
2023/09/06 08:55:23;;;;;;;3.25;1.60;;;;;;;;;;6241077;23;20341;-82
2023/09/06 08:57:49;;;;;;;2.10;1.83;;;;;;;;;;6242029;23;20065;-81
2023/09/06 09:00:15;;;;;;;5.15;1.88;;;;;;;;;;6213955;23;20031;-82
2023/09/06 09:02:46;;;;;;;4.80;1.88;;;;;;;;;;6241943;23;20023;-81
2023/09/06 09:05:12;;;;;;;4.43;1.73;;;;;;;;;;6241117;23;20054;-81
2023/09/06 09:07:38;;;;;;;3.13;2.08;;;;;;;;;;6241963;23;20015;-81
2023/09/06 09:10:07;;;;;;;6.10;1.60;;;;;;;;;;6239509;23;20039;-83
2023/09/06 09:12:34;;;;;;;2.58;1.88;;;;;;;;;;6241705;23;20004;-83
2023/09/06 09:15:00;;;;;;;4.13;1.63;;;;;;;;;;6241579;23;20334;-83
2023/09/06 09:17:27;;;;;;;2.15;1.60;;;;;;;;;;6213460;23;20016;-85
2023/09/06 09:19:57;;;;;;;2.50;1.50;;;;;;;;;;6241086;23;20020;-85
2023/09/06 09:22:37;;;;;;;5.40;1.70;;;;;;;;;;6214638;23;20016;-82
2023/09/06 09:25:04;;;;;;;1.90;1.52;;;;;;;;;;6240413;23;20342;-83
2023/09/06 09:27:30;;;;;;;2.58;1.60;;;;;;;;;;6240918;23;20020;-83
2023/09/06 09:29:56;;;;;;;2.70;1.65;;;;;;;;;;6214119;23;20019;-82
2023/09/06 09:32:22;;;;;;;3.65;1.80;;;;;;;;;;6241033;23;20009;-82
2023/09/06 09:34:50;;;;;;;3.83;1.80;;;;;;;;;;6239776;23;20016;-83
2023/09/06 09:37:16;;;;;;;2.33;1.95;;;;;;;;;;6213440;23;20142;-82
2023/09/06 09:39:42;;;;;;;2.90;1.80;;;;;;;;;;6214424;23;20070;-82
2023/09/06 09:42:11;;;;;;;3.28;1.52;;;;;;;;;;6213848;23;20015;-81
2023/09/06 09:44:39;;;;;;;3.78;1.55;;;;;;;;;;6189661;23;20016;-82
2023/09/06 09:47:12;;;;;;;2.47;1.50;;;;;;;;;;6240070;23;20062;-83
2023/09/06 09:49:40;;;;;;;2.03;1.85;;;;;;;;;;6214401;23;20338;-84
2023/09/06 09:52:09;;;;;;;2.40;1.70;;;;;;;;;;6240025;23;20008;-82
2023/09/06 09:54:36;;;;;;;1.95;1.75;;;;;;;;;;6214506;23;20330;-82
2023/09/06 09:57:06;;;;;;;2.00;1.80;;;;;;;;;;6213988;23;20042;-82
2023/09/06 09:59:36;;;;;;;3.72;1.90;;;;;;;;;;6240568;23;20012;-83
2023/09/06 10:02:04;;;;;;;2.33;1.85;;;;;;;;;;6238898;23;20016;-82
2023/09/06 10:04:30;;;;;;;2.22;1.65;;;;;;;;;;6239946;23;20077;-82
2023/09/06 10:06:57;;;;;;;1.73;1.60;;;;;;;;;;6239588;23;20013;-82
2023/09/06 10:09:23;;;;;;;2.72;1.70;;;;;;;;;;6240678;23;20043;-83
2023/09/06 10:11:51;;;;;;;2.70;1.67;;;;;;;;;;6212589;23;20018;-82
2023/09/06 10:14:19;;;;;;;2.20;1.50;;;;;;;;;;6240985;23;20121;-83
2023/09/06 10:16:46;;;;;;;2.20;1.75;;;;;;;;;;6241754;23;20016;-82
2023/09/06 10:19:12;;;;;;;2.95;1.77;;;;;;;;;;6239206;23;20023;-81
2023/09/06 10:21:39;;;;;;;1.95;1.65;;;;;;;;;;6214490;23;20398;-82
2023/09/06 10:24:09;;;;;;;2.25;1.95;;;;;;;;;;6240240;23;20016;-83
2023/09/06 10:26:40;;;;;;;2.15;1.67;;;;;;;;;;6241077;23;20058;-84
2023/09/06 10:29:11;;;;;;;1.63;1.52;;;;;;;;;;6240198;23;20023;-83
2023/09/06 10:31:47;;;;;;;2.63;1.63;;;;;;;;;;6240310;23;20020;-83
2023/09/06 10:34:13;;;;;;;2.03;1.58;;;;;;;;;;6186747;23;20067;-83
2023/09/06 10:36:51;;;;;;;1.90;1.40;;;;;;;;;;6241384;23;20012;-82
2023/09/06 10:39:21;;;;;;;2.42;1.45;;;;;;;;;;6188385;23;20410;-82
2023/09/06 10:42:05;;;;;;;2.75;1.40;;;;;;;;;;6214431;23;20452;-81
2023/09/06 10:44:51;;;;;;;2.60;1.45;;;;;;;;;;6214265;23;20024;-82
2023/09/06 10:47:24;;;;;;;2.05;1.40;;;;;;;;;;6214358;23;20330;-83
2023/09/06 10:50:09;;;;;;;1.42;1.17;;;;;;;;;;6242947;23;20019;-82
2023/09/06 10:52:41;;;;;;;2.50;1.45;;;;;;;;;;6215376;23;20023;-82
2023/09/06 10:55:26;;;;;;;2.17;1.50;;;;;;;;;;6242312;23;20437;-89
2023/09/06 10:58:02;;;;;;;2.10;1.45;;;;;;;;;;6243348;23;20095;-86
2023/09/06 11:00:34;;;;;;;2.42;1.63;;;;;;;;;;6243563;23;20078;-85
2023/09/06 11:03:21;;;;;;;2.70;1.92;;;;;;;;;;6215043;23;20066;-85
2023/09/06 11:05:52;;;;;;;4.60;1.80;;;;;;;;;;6243261;23;20461;-88
2023/09/06 11:08:25;;;;;;;1.52;1.42;;;;;;;;;;6244127;23;20317;-94
2023/09/06 11:10:53;;;;;;;2.00;1.80;;;;;;;;;;6243755;23;20016;-86
2023/09/06 11:13:20;;;;;;;1.75;1.40;;;;;;;;;;6243353;23;20019;-89
2023/09/06 11:15:49;;;;;;;1.60;1.50;;;;;;;;;;6243525;23;20337;-86
2023/09/06 11:18:15;;;;;;;1.95;1.40;;;;;;;;;;6242679;23;20012;-86
2023/09/06 11:20:46;;;;;;;1.70;1.30;;;;;;;;;;6243677;23;20035;-94
2023/09/06 11:23:12;;;;;;;1.67;1.48;;;;;;;;;;6215988;23;20083;-87
2023/09/06 11:25:38;;;;;;;2.42;1.63;;;;;;;;;;6216607;23;20070;-85
2023/09/06 11:28:28;;;;;;;2.63;1.38;;;;;;;;;;6214508;23;20468;-85
2023/09/06 11:30:54;;;;;;;2.08;1.50;;;;;;;;;;6215423;23;20040;-87
2023/09/06 11:33:29;;;;;;;2.13;1.40;;;;;;;;;;6242630;23;20159;-82
2023/09/06 11:35:58;;;;;;;1.25;1.13;;;;;;;;;;6241024;23;20461;-83
2023/09/06 11:38:28;;;;;;;1.58;1.45;;;;;;;;;;6215805;23;20460;-85
2023/09/06 11:41:03;;;;;;;1.27;1.17;;;;;;;;;;6242646;23;20009;-83
2023/09/06 11:43:30;;;;;;;2.78;1.35;;;;;;;;;;6242408;23;20111;-83
2023/09/06 11:46:03;;;;;;;1.83;1.27;;;;;;;;;;6216032;23;20330;-87
2023/09/06 11:48:30;;;;;;;1.58;1.33;;;;;;;;;;6242356;23;20016;-87
2023/09/06 11:51:08;;;;;;;2.47;1.75;;;;;;;;;;6241660;23;20039;-85
2023/09/06 11:53:36;;;;;;;1.83;1.30;;;;;;;;;;6243429;23;20016;-86
2023/09/06 11:56:05;;;;;;;1.52;1.27;;;;;;;;;;6216112;23;20087;-90
2023/09/06 11:58:32;;;;;;;1.73;1.30;;;;;;;;;;6244111;23;20028;-86
2023/09/06 12:01:01;;;;;;;1.73;1.60;;;;;;;;;;6241151;23;20016;-91
2023/09/06 12:03:33;;;;;;;1.85;1.60;;;;;;;;;;6243812;23;20011;-91
2023/09/06 12:06:00;;;;;;;1.80;1.70;;;;;;;;;;6242615;23;20342;-90
2023/09/06 12:08:29;;;;;;;1.55;1.30;;;;;;;;;;6243510;23;20030;-87
2023/09/06 12:11:06;;;;;;;1.85;1.60;;;;;;;;;;6242999;23;20016;-86
2023/09/06 12:13:34;;;;;;;1.60;1.50;;;;;;;;;;6215590;23;20070;-84
2023/09/06 12:16:01;;;;;;;1.98;1.75;;;;;;;;;;6241668;23;20016;-89
2023/09/06 12:18:30;;;;;;;1.52;1.42;;;;;;;;;;6189370;23;20012;-91
2023/09/06 12:20:59;;;;;;;1.85;1.50;;;;;;;;;;6241193;23;20019;-83
2023/09/06 12:23:28;;;;;;;1.88;1.65;;;;;;;;;;6215061;23;20099;-89
2023/09/06 12:25:54;;;;;;;3.72;1.60;;;;;;;;;;6241453;23;20016;-83
2023/09/06 12:28:20;;;;;;;2.13;1.40;;;;;;;;;;6215132;23;20184;-82
2023/09/06 12:30:47;;;;;;;2.83;1.50;;;;;;;;;;6215641;23;20040;-86
2023/09/06 12:33:14;;;;;;;2.53;1.42;;;;;;;;;;6213717;23;20012;-83
2023/09/06 12:35:40;;;;;;;1.83;1.58;;;;;;;;;;6215448;23;20052;-93
2023/09/06 12:38:06;;;;;;;2.00;1.80;;;;;;;;;;6242625;23;20023;-85
2023/09/06 12:40:33;;;;;;;1.70;1.55;;;;;;;;;;6242532;23;20016;-84
2023/09/06 12:43:00;;;;;;;2.05;1.60;;;;;;;;;;6215000;23;20051;-84
2023/09/06 12:45:26;;;;;;;2.63;1.58;;;;;;;;;;6242724;23;20004;-88
2023/09/06 12:47:52;;;;;;;1.40;1.30;;;;;;;;;;6213978;23;20023;-87
2023/09/06 12:50:19;;;;;;;2.10;1.40;;;;;;;;;;6239443;23;20464;-86
2023/09/06 12:52:45;;;;;;;2.15;1.30;;;;;;;;;;6238958;23;20452;-83
2023/09/06 12:55:11;;;;;;;1.45;1.35;;;;;;;;;;6239715;23;20380;-83
2023/09/06 12:57:37;;;;;;;1.70;1.60;;;;;;;;;;6241713;23;20433;-84
2023/09/06 13:00:07;;;;;;;2.17;1.48;;;;;;;;;;6241435;23;20016;-84
2023/09/06 13:02:33;;;;;;;1.40;1.10;;;;;;;;;;6214152;23;20020;-83
2023/09/06 13:05:00;;;;;;;2.30;1.30;;;;;;;;;;6213615;23;20024;-83
2023/09/06 13:07:27;;;;;;;1.85;1.52;;;;;;;;;;6240906;23;20048;-84
2023/09/06 13:09:53;;;;;;;1.77;1.27;;;;;;;;;;6240864;23;20075;-82
2023/09/06 13:12:20;;;;;;;1.40;1.17;;;;;;;;;;6241511;23;20015;-89
2023/09/06 13:14:46;;;;;;;1.45;1.25;;;;;;;;;;6242522;23;20020;-87
2023/09/06 13:17:12;;;;;;;1.50;1.30;;;;;;;;;;6240387;23;20008;-87
2023/09/06 13:19:41;;;;;;;1.25;1.10;;;;;;;;;;6240962;23;20023;-85
2023/09/06 13:22:07;;;;;;;1.75;1.30;;;;;;;;;;6240159;23;20065;-83
2023/09/06 13:24:33;;;;;;;1.42;1.30;;;;;;;;;;6241481;23;20055;-88
2023/09/06 13:27:00;;;;;;;1.55;1.08;;;;;;;;;;6241579;23;20019;-85
2023/09/06 13:29:26;;;;;;;2.40;1.25;;;;;;;;;;6241228;23;20339;-84
2023/09/06 13:31:52;;;;;;;1.65;1.40;;;;;;;;;;6214467;23;20013;-83
2023/09/06 13:34:19;;;;;;;2.72;1.20;;;;;;;;;;6241929;23;20433;-85
2023/09/06 13:36:45;;;;;;;1.92;1.50;;;;;;;;;;6242073;23;20030;-82
2023/09/06 13:39:13;;;;;;;2.78;1.30;;;;;;;;;;6240669;23;20016;-83
2023/09/06 13:41:39;;;;;;;1.30;1.20;;;;;;;;;;6240992;23;20083;-83
2023/09/06 13:44:05;;;;;;;1.83;1.10;;;;;;;;;;6241855;23;20051;-83
2023/09/06 13:46:35;;;;;;;1.30;1.20;;;;;;;;;;6242541;23;20376;-83
2023/09/06 13:49:06;;;;;;;1.65;1.15;;;;;;;;;;6213683;23;20480;-82
2023/09/06 13:51:32;;;;;;;3.08;1.35;;;;;;;;;;6242178;23;20012;-84
2023/09/06 13:53:58;;;;;;;1.23;1.13;;;;;;;;;;6242239;23;20023;-90
2023/09/06 13:56:24;;;;;;;1.15;0.95;;;;;;;;;;6241623;23;20020;-82
2023/09/06 13:58:50;;;;;;;1.75;1.05;;;;;;;;;;6241339;23;20012;-82
2023/09/06 14:01:16;;;;;;;3.47;1.38;;;;;;;;;;6239460;23;20027;-87
2023/09/06 14:03:42;;;;;;;1.70;1.08;;;;;;;;;;6214947;23;20394;-85
2023/09/06 14:06:09;;;;;;;1.95;1.20;;;;;;;;;;6213554;23;20847;-83
2023/09/06 14:08:35;;;;;;;1.25;1.02;;;;;;;;;;6242267;23;20008;-84
2023/09/06 14:11:02;;;;;;;2.20;1.10;;;;;;;;;;6214542;23;20019;-82
2023/09/06 14:13:28;;;;;;;2.75;1.17;;;;;;;;;;6239352;23;20074;-83
2023/09/06 14:15:55;;;;;;;1.20;1.10;;;;;;;;;;6212907;23;20012;-84
2023/09/06 14:18:21;;;;;;;1.20;1.10;;;;;;;;;;6211963;23;20052;-83
2023/09/06 14:20:47;;;;;;;1.40;1.20;;;;;;;;;;6240829;23;20441;-82
2023/09/06 14:23:13;;;;;;;0.95;0.82;;;;;;;;;;6239564;23;20023;-86
2023/09/06 14:25:40;;;;;;;2.22;1.10;;;;;;;;;;6241647;23;20066;-84
2023/09/06 14:28:06;;;;;;;1.30;1.00;;;;;;;;;;6241961;23;20012;-87
2023/09/06 14:30:32;;;;;;;1.27;0.90;;;;;;;;;;6241084;23;20039;-88
2023/09/06 14:33:00;;;;;;;1.35;1.20;;;;;;;;;;6241464;23;20016;-86
2023/09/06 14:35:26;;;;;;;1.05;0.82;;;;;;;;;;6213489;23;20016;-86
2023/09/06 14:37:52;;;;;;;1.33;1.23;;;;;;;;;;6213991;23;20050;-86
2023/09/06 14:40:19;;;;;;;1.90;1.10;;;;;;;;;;6240511;23;20094;-84
2023/09/06 14:42:45;;;;;;;1.90;1.25;;;;;;;;;;6241688;23;20406;-86
2023/09/06 14:45:12;;;;;;;1.52;1.15;;;;;;;;;;6240314;23;20016;-86